Time;durP1;ratioP1;P1;durP2;ratioP2;P2;SDS_P1;SDS_P2;PMS_P1;PMS_P2;Temp;Humidity;BMP_temperature;BMP_pressure;BME280_temperature;BME280_humidity;BME280_pressure;Samples;Min_cycle;Max_cycle;Signal;HPM_P1;HPM_P2
2021/04/10 00:00:06;;;;;;;3.67;2.37;;;19.60;26.40;;;;;;8459776;28;20509;-55
2021/04/10 00:04:10;;;;;;;4.25;2.78;;;19.60;26.30;;;;;;8460128;28;20039;-57
2021/04/10 00:08:10;;;;;;;4.03;2.50;;;19.50;26.40;;;;;;8460608;28;20036;-56
2021/04/10 00:12:11;;;;;;;3.67;2.53;;;19.50;26.40;;;;;;8463357;28;20043;-56
2021/04/10 00:16:11;;;;;;;3.40;2.40;;;19.50;26.40;;;;;;8460538;28;20067;-57
2021/04/10 00:20:15;;;;;;;5.10;2.53;;;19.50;26.40;;;;;;8460973;27;20560;-57
2021/04/10 00:24:16;;;;;;;4.93;2.50;;;19.50;26.40;;;;;;8458367;28;20027;-57
2021/04/10 00:28:16;;;;;;;3.25;2.33;;;19.40;26.40;;;;;;8464812;28;20031;-56
2021/04/10 00:32:17;;;;;;;4.83;2.73;;;19.40;26.40;;;;;;8458420;28;20035;-55
2021/04/10 00:36:17;;;;;;;4.07;2.60;;;19.40;26.40;;;;;;8459923;28;20043;-56
2021/04/10 00:40:18;;;;;;;4.67;2.53;;;19.40;26.40;;;;;;8460001;28;20032;-55
2021/04/10 00:44:18;;;;;;;4.63;2.90;;;19.40;26.40;;;;;;8460075;28;20039;-56
2021/04/10 00:48:19;;;;;;;3.13;2.23;;;19.30;26.50;;;;;;8462147;28;20483;-55
2021/04/10 00:52:21;;;;;;;3.90;2.67;;;19.30;26.50;;;;;;8482841;27;20038;-55
2021/04/10 00:56:21;;;;;;;;;;;19.30;26.50;;;;;;8478211;27;20066;-56
2021/04/10 01:00:22;;;;;;;4.47;2.60;;;19.30;26.50;;;;;;8461991;27;19911;-55
2021/04/10 01:04:23;;;;;;;3.03;2.30;;;19.30;26.50;;;;;;8497744;27;20032;-55
2021/04/10 01:08:27;;;;;;;4.03;2.63;;;19.30;26.50;;;;;;8463111;27;20035;-55
2021/04/10 01:12:51;;;;;;;4.10;2.70;;;19.30;26.50;;;;;;8458934;28;20032;-55
2021/04/10 01:16:55;;;;;;;4.35;2.55;;;19.20;26.50;;;;;;8458537;28;20043;-55
2021/04/10 01:21:05;;;;;;;4.47;2.45;;;19.20;26.50;;;;;;8456982;28;20022;-55
2021/04/10 01:25:09;;;;;;;3.85;2.20;;;19.20;26.60;;;;;;8463153;28;20051;-56
2021/04/10 01:29:14;;;;;;;3.00;2.45;;;19.20;26.60;;;;;;8458424;28;20043;-55
2021/04/10 01:33:18;;;;;;;4.72;2.90;;;19.20;26.60;;;;;;8456771;28;20066;-55
2021/04/10 01:37:29;;;;;;;3.92;2.47;;;19.20;26.60;;;;;;8458162;28;20139;-54
2021/04/10 01:41:31;;;;;;;4.78;2.58;;;19.10;26.60;;;;;;8460950;28;20556;-56
2021/04/10 01:45:32;;;;;;;3.47;2.40;;;19.10;26.60;;;;;;8460031;28;20039;-55
2021/04/10 01:49:33;;;;;;;4.75;3.10;;;19.10;26.60;;;;;;8462670;28;20032;-55
2021/04/10 01:53:35;;;;;;;3.70;2.60;;;19.10;26.70;;;;;;8476182;28;20035;-55
2021/04/10 01:57:38;;;;;;;4.32;2.53;;;19.10;26.70;;;;;;8457578;28;20048;-55
2021/04/10 02:01:41;;;;;;;3.67;2.58;;;19.10;26.70;;;;;;8462242;28;20104;-54
2021/04/10 02:05:42;;;;;;;3.15;2.80;;;19.10;26.60;;;;;;8455983;28;20019;-55
2021/04/10 02:09:46;;;;;;;5.60;2.55;;;19.10;26.60;;;;;;8457793;28;20039;-55
2021/04/10 02:13:48;;;;;;;3.90;2.75;;;19.10;26.60;;;;;;8457962;28;20549;-55
2021/04/10 02:17:48;;;;;;;2.95;2.08;;;19.10;26.70;;;;;;8460068;28;20036;-55
2021/04/10 02:21:49;;;;;;;2.87;2.23;;;19.10;26.70;;;;;;8457975;28;20036;-55
2021/04/10 02:25:49;;;;;;;5.63;2.57;;;19.10;26.70;;;;;;8457570;28;20035;-55
2021/04/10 02:29:50;;;;;;;4.87;2.83;;;19.10;26.70;;;;;;8462077;28;20127;-55
2021/04/10 02:33:55;;;;;;;3.50;2.43;;;19.10;26.70;;;;;;8463791;28;20033;-55
2021/04/10 02:37:56;;;;;;;3.10;2.30;;;19.00;26.60;;;;;;8468123;28;20043;-55
2021/04/10 02:42:01;;;;;;;3.25;2.28;;;19.10;26.70;;;;;;8462291;27;20487;-55
2021/04/10 02:46:03;;;;;;;3.78;2.63;;;19.00;26.60;;;;;;8463588;28;20031;-53
2021/04/10 02:50:06;;;;;;;3.42;2.40;;;19.10;26.70;;;;;;8463193;28;20122;-55
2021/04/10 02:54:07;;;;;;;3.85;2.50;;;19.10;26.70;;;;;;8465948;28;20031;-56
2021/04/10 02:58:10;;;;;;;;;;;19.10;26.70;;;;;;8463439;28;20051;-55
2021/04/10 03:02:13;;;;;;;2.67;2.25;;;19.00;26.60;;;;;;8463833;28;19912;-55
2021/04/10 03:06:15;;;;;;;3.92;2.30;;;19.00;26.70;;;;;;8461455;27;20024;-55
2021/04/10 03:10:16;;;;;;;3.45;2.35;;;19.00;27.10;;;;;;8462828;28;20122;-55
2021/04/10 03:14:17;;;;;;;2.67;2.10;;;19.00;26.70;;;;;;8465657;28;20051;-50
2021/04/10 03:18:19;;;;;;;2.30;2.00;;;19.00;26.70;;;;;;8462557;28;20051;-55
2021/04/10 03:22:20;;;;;;;3.70;2.47;;;19.00;26.70;;;;;;8462526;28;20039;-55
2021/04/10 03:26:21;;;;;;;4.10;2.40;;;19.00;26.70;;;;;;8461184;27;20487;-55
2021/04/10 03:30:23;;;;;;;3.95;2.30;;;19.00;26.70;;;;;;8466494;28;20310;-54
2021/04/10 03:34:24;;;;;;;3.67;2.30;;;19.00;26.70;;;;;;8461854;28;20088;-54
2021/04/10 03:38:25;;;;;;;2.13;1.90;;;19.00;26.70;;;;;;8459078;28;20040;-55
2021/04/10 03:42:37;;;;;;;3.80;2.53;;;19.00;26.70;;;;;;8461674;28;20131;-55
2021/04/10 03:46:38;;;;;;;3.33;2.03;;;19.00;26.70;;;;;;8461914;28;20060;-55
2021/04/10 03:50:39;;;;;;;3.20;2.30;;;19.00;26.70;;;;;;8464329;28;20437;-55
2021/04/10 03:54:41;;;;;;;;;;;19.00;26.70;;;;;;8461338;27;20403;-55
2021/04/10 03:58:42;;;;;;;4.17;2.30;;;19.00;26.70;;;;;;8461062;28;19919;-55
2021/04/10 04:02:43;;;;;;;3.53;2.25;;;19.00;27.20;;;;;;8459416;28;20145;-55
2021/04/10 04:06:43;;;;;;;3.40;2.50;;;19.00;26.80;;;;;;8465721;28;20057;-55
2021/04/10 04:10:44;;;;;;;2.93;2.33;;;19.00;26.80;;;;;;8460882;28;20076;-55
2021/04/10 04:14:44;;;;;;;3.50;2.17;;;19.00;26.80;;;;;;8459231;28;20484;-55
2021/04/10 04:18:45;;;;;;;3.93;2.03;;;19.00;26.80;;;;;;8469725;27;20047;-56
2021/04/10 04:22:45;;;;;;;2.97;2.17;;;19.10;26.80;;;;;;8496397;27;20031;-55
2021/04/10 04:26:46;;;;;;;4.03;2.27;;;19.10;26.70;;;;;;8460847;28;20031;-56
2021/04/10 04:30:47;;;;;;;3.07;2.13;;;19.20;26.80;;;;;;8460057;28;20023;-56
2021/04/10 04:34:48;;;;;;;3.65;2.03;;;19.20;26.70;;;;;;8459928;28;20046;-54
2021/04/10 04:38:49;;;;;;;4.53;2.30;;;19.30;26.80;;;;;;8461573;27;20112;-56
2021/04/10 04:42:49;;;;;;;3.70;1.87;;;19.30;26.80;;;;;;8498214;27;20027;-56
2021/04/10 04:46:50;;;;;;;3.20;2.23;;;19.40;26.80;;;;;;8465579;27;20528;-56
2021/04/10 04:50:50;;;;;;;4.33;2.13;;;19.40;26.70;;;;;;8457523;28;20055;-56
2021/04/10 04:54:51;;;;;;;3.20;1.97;;;19.40;26.70;;;;;;8459622;28;20028;-56
2021/04/10 04:58:51;;;;;;;2.73;2.07;;;19.40;26.70;;;;;;8463522;28;20035;-56
2021/04/10 05:02:52;;;;;;;3.27;2.30;;;19.40;26.70;;;;;;8457091;28;20048;-56
2021/04/10 05:06:53;;;;;;;4.73;2.57;;;19.50;26.80;;;;;;8459492;28;20513;-56
2021/04/10 05:10:53;;;;;;;2.67;2.17;;;19.50;26.70;;;;;;8458608;28;20032;-56
2021/04/10 05:14:54;;;;;;;4.20;1.87;;;19.60;26.80;;;;;;8457424;28;20506;-56
2021/04/10 05:18:54;;;;;;;3.30;2.00;;;19.60;26.80;;;;;;8463173;28;20135;-56
2021/04/10 05:22:55;;;;;;;2.07;1.87;;;19.60;26.70;;;;;;8457799;28;20031;-56
2021/04/10 05:26:55;;;;;;;3.20;2.33;;;19.60;26.70;;;;;;8452630;27;20371;-56
2021/04/10 05:31:01;;;;;;;3.13;2.10;;;19.60;26.70;;;;;;8487502;27;20540;-56
2021/04/10 05:35:01;;;;;;;3.47;1.90;;;19.70;26.80;;;;;;8462939;28;20036;-56
2021/04/10 05:39:02;;;;;;;3.33;1.87;;;19.70;26.80;;;;;;8456119;28;20126;-55
2021/04/10 05:43:02;;;;;;;3.47;2.40;;;19.70;26.80;;;;;;8457659;28;20124;-56
2021/04/10 05:47:03;;;;;;;3.10;2.10;;;19.80;26.80;;;;;;8458345;28;20360;-56
2021/04/10 05:51:04;;;;;;;3.20;2.10;;;19.80;26.80;;;;;;8460713;28;20024;-56
2021/04/10 05:55:06;;;;;;;2.80;1.83;;;19.80;26.80;;;;;;8458031;28;20035;-56
2021/04/10 05:59:07;;;;;;;3.97;2.15;;;19.80;26.80;;;;;;8457462;28;20638;-56
2021/04/10 06:03:07;;;;;;;2.43;1.90;;;19.80;27.20;;;;;;8460168;28;20039;-56
2021/04/10 06:07:08;;;;;;;3.23;1.93;;;19.80;26.70;;;;;;8464778;28;20035;-56
2021/04/10 06:11:08;;;;;;;2.60;2.07;;;19.90;26.80;;;;;;8468988;28;20043;-56
2021/04/10 06:15:10;;;;;;;2.77;1.90;;;19.90;26.80;;;;;;8463115;28;20503;-56
2021/04/10 06:19:11;;;;;;;4.57;1.75;;;19.90;26.80;;;;;;8464579;28;20066;-56
2021/04/10 06:23:12;;;;;;;3.37;2.00;;;19.90;26.80;;;;;;8470324;27;20031;-57
2021/04/10 06:27:13;;;;;;;4.37;2.80;;;19.90;26.70;;;;;;8501293;27;20051;-56
2021/04/10 06:31:13;;;;;;;4.30;2.47;;;20.00;26.80;;;;;;8497633;27;20036;-57
2021/04/10 06:35:14;;;;;;;3.37;2.83;;;20.00;26.80;;;;;;8477195;27;20499;-56
2021/04/10 06:39:15;;;;;;;5.30;3.00;;;20.00;26.70;;;;;;8462118;28;20507;-57
2021/04/10 06:43:16;;;;;;;3.47;2.70;;;20.00;26.70;;;;;;8464783;28;20031;-56
2021/04/10 06:47:21;;;;;;;4.97;2.92;;;20.00;26.70;;;;;;8432439;28;20036;-54
2021/04/10 06:51:23;;;;;;;5.68;2.97;;;20.00;26.80;;;;;;8454668;28;20063;-57
2021/04/10 06:55:25;;;;;;;5.57;3.17;;;20.00;26.70;;;;;;8464079;27;20024;-56
2021/04/10 06:59:40;;;;;;;4.07;3.08;;;20.10;26.80;;;;;;8461077;28;20051;-56
2021/04/10 07:03:42;;;;;;;4.28;3.47;;;20.10;26.80;;;;;;8467538;28;20031;-56
2021/04/10 07:07:43;;;;;;;3.95;3.22;;;20.10;26.70;;;;;;8462744;27;20035;-56
2021/04/10 07:11:44;;;;;;;4.53;3.30;;;20.10;26.80;;;;;;8462325;27;20046;-56
2021/04/10 07:15:45;;;;;;;4.80;3.30;;;20.10;27.20;;;;;;8462222;28;20046;-57
2021/04/10 07:19:46;;;;;;;4.33;2.67;;;20.20;26.80;;;;;;8462343;28;20123;-56
2021/04/10 07:23:54;;;;;;;4.23;3.07;;;20.20;26.80;;;;;;8465351;28;20408;-56
2021/04/10 07:27:55;;;;;;;3.90;2.90;;;20.20;26.80;;;;;;8462127;28;20047;-56
2021/04/10 07:31:56;;;;;;;4.68;2.90;;;20.20;26.80;;;;;;8462359;28;20035;-56
2021/04/10 07:35:57;;;;;;;3.45;2.75;;;20.20;26.80;;;;;;8460184;28;20114;-56
2021/04/10 07:39:59;;;;;;;3.58;2.65;;;20.20;26.70;;;;;;8466334;28;20048;-55
2021/04/10 07:43:59;;;;;;;4.28;3.05;;;20.30;26.80;;;;;;8461743;28;20063;-55
2021/04/10 07:48:03;;;;;;;3.80;2.57;;;20.30;26.80;;;;;;8459611;28;20036;-57
2021/04/10 07:52:05;;;;;;;4.18;2.72;;;20.30;26.80;;;;;;8462313;28;20039;-56
2021/04/10 07:56:08;;;;;;;3.83;3.20;;;20.30;26.70;;;;;;8461331;28;20046;-56
2021/04/10 08:00:09;;;;;;;4.18;2.50;;;20.30;26.70;;;;;;8464015;28;20097;-56
2021/04/10 08:04:14;;;;;;;3.92;2.53;;;20.30;26.70;;;;;;8460958;28;20492;-56
2021/04/10 08:08:25;;;;;;;4.40;2.70;;;20.40;26.80;;;;;;8461249;28;20023;-56
2021/04/10 08:12:31;;;;;;;3.35;2.35;;;20.40;26.70;;;;;;8459614;28;20063;-57
2021/04/10 08:16:37;;;;;;;3.20;2.60;;;20.40;26.70;;;;;;8464931;28;20043;-57
2021/04/10 08:20:47;;;;;;;2.42;2.15;;;20.40;26.70;;;;;;8459070;28;20071;-56
2021/04/10 08:24:48;;;;;;;4.28;2.67;;;20.50;26.80;;;;;;8460146;28;20036;-56
2021/04/10 08:28:49;;;;;;;3.43;2.53;;;20.40;26.70;;;;;;8473569;27;20042;-56
2021/04/10 08:32:50;;;;;;;3.65;2.63;;;20.50;26.70;;;;;;8488959;27;20044;-56
2021/04/10 08:37:13;;;;;;;2.65;2.22;;;20.50;26.70;;;;;;8464783;28;20135;-57
2021/04/10 08:41:13;;;;;;;2.85;2.60;;;20.60;26.70;;;;;;8460707;27;20036;-57
2021/04/10 08:45:15;;;;;;;2.57;2.33;;;20.60;26.70;;;;;;8458609;28;20031;-57
2021/04/10 08:49:17;;;;;;;;;;;20.60;26.70;;;;;;8458864;28;20404;-56
2021/04/10 08:53:24;;;;;;;2.88;2.00;;;20.60;26.70;;;;;;8459011;27;19912;-56
2021/04/10 08:57:39;;;;;;;4.53;2.45;;;20.70;26.70;;;;;;8430523;28;20040;-57
2021/04/10 09:01:42;;;;;;;3.67;2.22;;;20.70;26.70;;;;;;8453809;27;20441;-57
2021/04/10 09:05:51;;;;;;;3.47;2.45;;;20.70;26.70;;;;;;8458060;27;20035;-57
2021/04/10 09:09:51;;;;;;;2.53;2.22;;;20.70;26.70;;;;;;8459411;28;20048;-57
2021/04/10 09:13:53;;;;;;;2.83;2.40;;;20.70;26.60;;;;;;8464171;28;20028;-57
2021/04/10 09:17:58;;;;;;;2.65;2.15;;;20.80;26.70;;;;;;8457305;28;20391;-57
2021/04/10 09:22:00;;;;;;;2.85;2.35;;;20.80;26.70;;;;;;8481690;27;20050;-57
2021/04/10 09:26:18;;;;;;;2.88;2.42;;;20.80;26.60;;;;;;8491666;27;20032;-57
2021/04/10 09:30:36;;;;;;;3.05;2.30;;;20.80;26.70;;;;;;8485003;27;20071;-56
2021/04/10 09:34:54;;;;;;;2.45;1.85;;;20.80;26.60;;;;;;8463248;28;20035;-57
2021/04/10 09:38:54;;;;;;;2.45;1.90;;;20.80;26.60;;;;;;8460347;28;20038;-57
2021/04/10 09:43:05;;;;;;;2.30;2.10;;;20.80;26.60;;;;;;8458229;28;20039;-56
2021/04/10 09:47:05;;;;;;;2.42;2.08;;;20.90;26.70;;;;;;8458196;28;20032;-57
2021/04/10 09:51:07;;;;;;;2.63;1.97;;;20.90;26.60;;;;;;8456448;28;20027;-57
2021/04/10 09:55:09;;;;;;;;;;;20.90;26.60;;;;;;8462833;28;20100;-57
2021/04/10 09:59:09;;;;;;;4.10;1.90;;;20.90;26.70;;;;;;8459029;28;19924;-57
2021/04/10 10:03:12;;;;;;;2.13;1.93;;;20.90;26.60;;;;;;8456671;28;20475;-57
2021/04/10 10:07:12;;;;;;;3.08;2.30;;;20.90;26.60;;;;;;8458864;28;20031;-57
2021/04/10 10:11:14;;;;;;;3.27;1.93;;;21.00;26.70;;;;;;8460039;28;20039;-57
2021/04/10 10:15:24;;;;;;;3.22;2.17;;;21.00;26.70;;;;;;8459085;28;20043;-57
2021/04/10 10:19:25;;;;;;;3.45;1.90;;;21.00;26.70;;;;;;8457802;28;20044;-57
2021/04/10 10:23:41;;;;;;;3.50;2.03;;;21.00;26.60;;;;;;8456097;28;20083;-56
2021/04/10 10:27:47;;;;;;;2.20;1.85;;;21.00;26.60;;;;;;8458005;28;20032;-57
2021/04/10 10:31:50;;;;;;;3.22;2.20;;;21.10;26.60;;;;;;8462146;28;20039;-57
2021/04/10 10:35:51;;;;;;;1.83;1.55;;;21.10;26.60;;;;;;8456147;28;20038;-57
2021/04/10 10:39:52;;;;;;;;;;;21.10;26.60;;;;;;8458021;28;20043;-57
2021/04/10 10:44:00;;;;;;;2.13;1.70;;;21.10;26.60;;;;;;8457339;28;20379;-57
2021/04/10 10:48:42;;;;;;;2.20;1.92;;;21.10;26.60;;;;;;8457146;28;20035;-56
2021/04/10 10:52:43;;;;;;;2.40;1.88;;;21.10;26.60;;;;;;8447222;28;20480;-57
2021/04/10 10:56:44;;;;;;;1.73;1.63;;;21.10;26.60;;;;;;8461558;28;20046;-57
2021/04/10 11:00:45;;;;;;;2.90;1.63;;;21.10;26.60;;;;;;8463280;28;20466;-57
2021/04/10 11:04:47;;;;;;;2.53;2.00;;;21.10;26.50;;;;;;8463183;28;20543;-57
2021/04/10 11:08:48;;;;;;;2.70;2.20;;;21.10;26.50;;;;;;8461716;27;20043;-57
2021/04/10 11:12:48;;;;;;;2.70;1.92;;;21.20;26.60;;;;;;8467416;28;20497;-56
2021/04/10 11:16:51;;;;;;;2.20;1.60;;;21.20;26.50;;;;;;8463133;28;20063;-56
2021/04/10 11:20:52;;;;;;;2.80;2.08;;;21.20;26.60;;;;;;8461366;28;20035;-56
2021/04/10 11:24:52;;;;;;;2.75;2.10;;;21.20;26.60;;;;;;8462327;28;20369;-56
2021/04/10 11:28:53;;;;;;;2.60;1.77;;;21.20;26.60;;;;;;8466962;28;20119;-57
2021/04/10 11:32:53;;;;;;;3.30;2.20;;;21.20;26.50;;;;;;8460556;28;20043;-56
2021/04/10 11:36:57;;;;;;;2.30;1.83;;;21.20;26.50;;;;;;8462087;28;20135;-56
2021/04/10 11:40:58;;;;;;;2.45;1.77;;;21.20;26.50;;;;;;8472803;27;20027;-56
2021/04/10 11:45:01;;;;;;;5.53;1.80;;;21.20;26.50;;;;;;8493339;27;20215;-57
2021/04/10 11:49:01;;;;;;;2.92;2.00;;;21.20;26.50;;;;;;8499998;27;20043;-57
2021/04/10 11:53:13;;;;;;;2.97;1.93;;;21.30;26.50;;;;;;8470115;27;20504;-56
2021/04/10 11:57:28;;;;;;;3.53;1.60;;;21.30;26.50;;;;;;8459787;28;20040;-57
2021/04/10 12:01:29;;;;;;;1.70;1.52;;;21.30;26.50;;;;;;8460884;28;20080;-57
2021/04/10 12:05:34;;;;;;;2.45;1.85;;;21.30;26.50;;;;;;8464431;28;20040;-57
2021/04/10 12:09:41;;;;;;;2.00;1.58;;;21.30;26.50;;;;;;8461302;28;20031;-57
2021/04/10 12:13:42;;;;;;;2.40;1.90;;;21.30;26.50;;;;;;8461339;28;20040;-57
2021/04/10 12:17:43;;;;;;;2.10;1.60;;;21.30;26.50;;;;;;8458847;28;20070;-57
2021/04/10 12:21:44;;;;;;;2.33;1.57;;;21.40;26.60;;;;;;8460605;28;20397;-56
2021/04/10 12:25:45;;;;;;;2.50;1.50;;;21.40;26.60;;;;;;8464787;28;20028;-57
2021/04/10 12:29:45;;;;;;;2.08;1.75;;;21.40;26.50;;;;;;8458744;28;20028;-57
2021/04/10 12:33:46;;;;;;;1.90;1.70;;;21.40;26.50;;;;;;8477843;27;20042;-57
2021/04/10 12:37:46;;;;;;;1.90;1.70;;;21.40;26.50;;;;;;8485863;27;20044;-57
2021/04/10 12:41:47;;;;;;;2.70;1.63;;;21.40;26.50;;;;;;8462981;28;20464;-57
2021/04/10 12:45:47;;;;;;;2.57;2.00;;;21.50;26.50;;;;;;8460327;28;20055;-57
2021/04/10 12:49:48;;;;;;;2.40;1.87;;;21.50;26.50;;;;;;8459841;28;20035;-56
2021/04/10 12:53:49;;;;;;;2.20;1.73;;;21.50;26.50;;;;;;8468692;27;20400;-57
2021/04/10 12:57:49;;;;;;;2.37;1.83;;;21.50;26.50;;;;;;8492584;27;20036;-57
2021/04/10 13:01:50;;;;;;;2.97;1.80;;;21.50;26.50;;;;;;8498026;27;20265;-57
2021/04/10 13:05:51;;;;;;;2.00;1.80;;;21.50;26.50;;;;;;8465848;27;20043;-58
2021/04/10 13:09:53;;;;;;;2.85;1.83;;;21.50;26.40;;;;;;8459220;28;20031;-57
2021/04/10 13:13:53;;;;;;;2.00;1.63;;;21.60;26.50;;;;;;8458906;28;20031;-57
2021/04/10 13:17:54;;;;;;;4.47;1.97;;;21.60;26.90;;;;;;8461854;28;20112;-57
2021/04/10 13:21:54;;;;;;;3.10;1.80;;;21.60;26.40;;;;;;8459204;28;20032;-58
2021/04/10 13:25:55;;;;;;;1.97;1.70;;;21.60;26.40;;;;;;8477893;27;20031;-58
2021/04/10 13:29:55;;;;;;;3.87;1.77;;;21.60;26.40;;;;;;8481491;27;20181;-58
2021/04/10 13:33:56;;;;;;;2.73;2.13;;;21.60;26.40;;;;;;8462952;28;20484;-57
2021/04/10 13:37:56;;;;;;;3.13;1.83;;;21.60;26.40;;;;;;8458403;28;20089;-58
2021/04/10 13:41:57;;;;;;;2.47;2.27;;;21.60;26.40;;;;;;8456966;28;20032;-57
2021/04/10 13:45:57;;;;;;;3.37;1.40;;;21.70;26.40;;;;;;8458264;28;20134;-58
2021/04/10 13:49:58;;;;;;;2.73;1.70;;;21.60;26.40;;;;;;8460548;28;20048;-57
2021/04/10 13:54:00;;;;;;;2.70;2.00;;;21.70;26.40;;;;;;8495208;27;20161;-57
2021/04/10 13:58:01;;;;;;;2.47;1.60;;;21.70;26.40;;;;;;8464903;28;20074;-58
2021/04/10 14:02:01;;;;;;;3.70;1.50;;;21.70;26.40;;;;;;8457679;28;20441;-58
2021/04/10 14:06:02;;;;;;;3.30;2.03;;;21.70;26.40;;;;;;8456498;28;20063;-57
2021/04/10 14:10:06;;;;;;;3.65;2.17;;;21.70;26.40;;;;;;8462150;28;20032;-57
2021/04/10 14:14:07;;;;;;;2.13;1.75;;;21.70;26.40;;;;;;8458125;28;20040;-58
2021/04/10 14:18:10;;;;;;;3.17;1.90;;;21.70;26.40;;;;;;8476544;28;20046;-58
2021/04/10 14:22:10;;;;;;;2.97;1.63;;;21.80;26.40;;;;;;8480507;28;20065;-56
2021/04/10 14:26:16;;;;;;;2.40;1.70;;;21.80;26.40;;;;;;8464845;27;20073;-58
2021/04/10 14:30:23;;;;;;;2.75;2.10;;;21.80;26.40;;;;;;8448988;28;20142;-58
2021/04/10 14:34:24;;;;;;;3.67;2.00;;;21.80;26.40;;;;;;8463960;28;20556;-58
2021/04/10 14:38:24;;;;;;;3.20;1.93;;;21.80;26.40;;;;;;8462181;28;20040;-58
2021/04/10 14:42:25;;;;;;;3.17;1.90;;;21.80;26.40;;;;;;8464516;28;20406;-58
2021/04/10 14:46:28;;;;;;;3.17;1.80;;;21.80;26.80;;;;;;8468216;28;20041;-57
2021/04/10 14:50:30;;;;;;;3.03;1.98;;;21.80;26.30;;;;;;8461759;28;20031;-58
2021/04/10 14:54:30;;;;;;;3.47;1.80;;;21.80;26.40;;;;;;8463721;28;20042;-57
2021/04/10 14:58:31;;;;;;;2.73;1.97;;;21.80;26.40;;;;;;8463448;28;20074;-57
2021/04/10 15:02:35;;;;;;;3.33;1.77;;;21.80;26.40;;;;;;8462629;28;20506;-57
2021/04/10 15:06:35;;;;;;;2.95;1.60;;;21.90;26.40;;;;;;8434155;28;20039;-58
2021/04/10 15:10:36;;;;;;;3.90;1.80;;;21.80;26.30;;;;;;8454114;28;20035;-57
2021/04/10 15:14:37;;;;;;;2.43;1.90;;;21.90;26.40;;;;;;8461288;28;20551;-57
2021/04/10 15:18:37;;;;;;;1.80;1.60;;;21.90;26.40;;;;;;8462597;28;20123;-58
2021/04/10 15:22:38;;;;;;;2.80;2.00;;;21.90;26.40;;;;;;8467045;28;20468;-58
2021/04/10 15:26:39;;;;;;;2.33;1.70;;;21.90;26.40;;;;;;8460943;27;20114;-58
2021/04/10 15:30:40;;;;;;;2.47;1.88;;;21.90;26.40;;;;;;8462497;28;20507;-58
2021/04/10 15:34:46;;;;;;;2.00;1.60;;;21.90;26.40;;;;;;8462392;28;20076;-58
2021/04/10 15:38:47;;;;;;;3.03;2.28;;;21.90;26.40;;;;;;8464730;28;20036;-58
2021/04/10 15:42:47;;;;;;;2.35;1.73;;;21.90;26.40;;;;;;8461802;28;20054;-57
2021/04/10 15:46:50;;;;;;;4.60;1.97;;;21.90;26.40;;;;;;8461929;28;20551;-57
2021/04/10 15:50:50;;;;;;;2.47;1.90;;;21.90;26.40;;;;;;8460420;27;20034;-57
2021/04/10 15:54:51;;;;;;;2.53;1.60;;;21.90;26.40;;;;;;8461669;28;20024;-57
2021/04/10 15:58:51;;;;;;;3.80;1.93;;;21.90;26.40;;;;;;8465865;28;20044;-58
2021/04/10 16:02:52;;;;;;;3.03;1.80;;;21.90;26.40;;;;;;8460080;27;20104;-58
2021/04/10 16:06:53;;;;;;;2.07;1.80;;;21.90;26.40;;;;;;8461316;28;20728;-57
2021/04/10 16:10:53;;;;;;;2.50;1.47;;;21.90;26.40;;;;;;8461109;28;20027;-58
2021/04/10 16:14:54;;;;;;;2.77;1.53;;;21.80;26.30;;;;;;8463509;28;20119;-58
2021/04/10 16:18:54;;;;;;;1.53;1.43;;;21.80;26.30;;;;;;8461131;28;20040;-57
2021/04/10 16:22:55;;;;;;;2.80;1.63;;;21.90;26.30;;;;;;8460551;28;20028;-57
2021/04/10 16:26:56;;;;;;;2.20;1.73;;;21.80;26.30;;;;;;8458899;28;20108;-58
2021/04/10 16:30:56;;;;;;;2.70;1.50;;;21.80;26.30;;;;;;8461563;28;20047;-58
2021/04/10 16:34:57;;;;;;;2.43;1.80;;;21.80;26.30;;;;;;8463512;28;20020;-57
2021/04/10 16:38:57;;;;;;;2.77;1.50;;;21.80;26.30;;;;;;8458165;28;20040;-58
2021/04/10 16:42:59;;;;;;;1.80;1.43;;;21.80;26.30;;;;;;8473408;27;20027;-58
2021/04/10 16:47:00;;;;;;;2.20;1.52;;;21.70;26.30;;;;;;8488719;27;20480;-58
2021/04/10 16:51:00;;;;;;;2.97;1.67;;;21.70;26.30;;;;;;8462744;28;20023;-57
2021/04/10 16:55:02;;;;;;;2.70;1.80;;;21.70;26.80;;;;;;8459993;28;20032;-58
2021/04/10 16:59:02;;;;;;;;;;;21.70;26.40;;;;;;8459738;28;20289;-58
2021/04/10 17:03:03;;;;;;;2.73;1.93;;;21.70;26.50;;;;;;8457542;28;19916;-58
2021/04/10 17:07:06;;;;;;;3.57;1.90;;;21.70;26.50;;;;;;8463572;28;20032;-58
2021/04/10 17:11:08;;;;;;;3.40;2.00;;;21.70;26.50;;;;;;8459145;28;20273;-57
2021/04/10 17:15:08;;;;;;;;;;;21.70;26.90;;;;;;8458031;28;20042;-58
2021/04/10 17:19:09;;;;;;;2.27;1.77;;;21.80;26.50;;;;;;8458363;28;20371;-56
2021/04/10 17:23:10;;;;;;;3.07;2.10;;;21.80;26.50;;;;;;8458854;28;20040;-56
2021/04/10 17:27:11;;;;;;;3.25;1.88;;;21.80;26.40;;;;;;8461345;28;20035;-58
2021/04/10 17:31:12;;;;;;;1.87;1.50;;;21.80;26.40;;;;;;8458595;27;20038;-58
2021/04/10 17:35:14;;;;;;;1.92;1.30;;;21.80;26.50;;;;;;8458949;28;20028;-58
2021/04/10 17:39:15;;;;;;;2.70;1.73;;;21.80;26.40;;;;;;8462204;27;20035;-58
2021/04/10 17:43:15;;;;;;;3.28;1.50;;;21.80;26.40;;;;;;8496612;27;20038;-58
2021/04/10 17:47:16;;;;;;;2.27;1.80;;;21.80;26.40;;;;;;8461809;27;20036;-58
2021/04/10 17:51:17;;;;;;;1.67;1.57;;;21.80;26.40;;;;;;8456297;28;20032;-58
2021/04/10 17:55:21;;;;;;;2.43;1.80;;;21.80;26.40;;;;;;8458066;28;20535;-58
2021/04/10 17:59:23;;;;;;;2.63;1.50;;;21.80;26.40;;;;;;8456426;28;20055;-57
2021/04/10 18:03:24;;;;;;;2.17;1.85;;;21.80;26.40;;;;;;8462047;28;20084;-58
2021/04/10 18:07:25;;;;;;;2.43;1.90;;;21.80;26.40;;;;;;8481715;28;20066;-58
2021/04/10 18:11:25;;;;;;;3.13;2.10;;;21.80;26.40;;;;;;8489112;28;20026;-58
2021/04/10 18:15:27;;;;;;;2.65;1.65;;;21.90;26.40;;;;;;8487021;27;20067;-57
2021/04/10 18:19:28;;;;;;;3.28;2.03;;;21.80;26.40;;;;;;8461860;28;20058;-57
2021/04/10 18:23:35;;;;;;;3.25;2.20;;;21.90;26.50;;;;;;8455876;28;20027;-57
2021/04/10 18:27:36;;;;;;;3.85;2.40;;;21.90;26.40;;;;;;8457721;28;20027;-57
2021/04/10 18:31:38;;;;;;;3.67;2.20;;;21.90;26.40;;;;;;8466055;28;20042;-57
2021/04/10 18:35:39;;;;;;;3.33;2.20;;;21.90;26.40;;;;;;8493106;27;20031;-56
2021/04/10 18:39:40;;;;;;;5.97;3.57;;;21.90;26.40;;;;;;8457007;28;20051;-56
2021/04/10 18:43:41;;;;;;;6.80;4.35;;;21.90;26.40;;;;;;8456979;28;20054;-56
2021/04/10 18:47:42;;;;;;;6.38;3.75;;;21.90;26.50;;;;;;8454821;28;20032;-57
2021/04/10 18:51:42;;;;;;;5.17;3.70;;;21.90;26.50;;;;;;8457051;28;20384;-57
2021/04/10 18:55:45;;;;;;;5.67;3.23;;;21.90;26.90;;;;;;8461697;28;20502;-57
2021/04/10 18:59:46;;;;;;;5.22;3.10;;;21.90;26.40;;;;;;8455534;28;20036;-57
2021/04/10 19:03:47;;;;;;;5.68;3.22;;;21.90;26.40;;;;;;8457514;28;20035;-57
2021/04/10 19:07:47;;;;;;;4.73;3.27;;;21.90;26.40;;;;;;8456986;28;20089;-57
2021/04/10 19:11:49;;;;;;;6.37;3.73;;;21.80;26.40;;;;;;8466207;28;20424;-56
2021/04/10 19:15:50;;;;;;;6.60;3.47;;;21.90;26.40;;;;;;8462758;28;20133;-58
2021/04/10 19:19:50;;;;;;;6.00;3.50;;;21.80;26.40;;;;;;8462777;28;20047;-57
2021/04/10 19:23:51;;;;;;;5.43;3.20;;;21.80;26.40;;;;;;8461081;28;20027;-57
2021/04/10 19:27:51;;;;;;;5.50;3.30;;;21.80;26.40;;;;;;8462212;28;20084;-57
2021/04/10 19:31:53;;;;;;;5.20;2.83;;;21.80;26.40;;;;;;8467094;28;20560;-57
2021/04/10 19:35:59;;;;;;;5.20;2.95;;;21.80;26.40;;;;;;8460333;28;20035;-57
2021/04/10 19:39:59;;;;;;;4.40;2.95;;;21.80;26.40;;;;;;8462005;28;20044;-57
2021/04/10 19:44:01;;;;;;;4.63;2.53;;;21.70;26.40;;;;;;8462176;28;20073;-57
2021/04/10 19:48:02;;;;;;;4.03;2.83;;;21.70;26.40;;;;;;8464769;28;20115;-57
2021/04/10 19:52:03;;;;;;;4.50;3.13;;;21.70;26.50;;;;;;8461823;28;20027;-57
2021/04/10 19:56:05;;;;;;;5.45;2.95;;;21.70;26.50;;;;;;8460751;28;20032;-57
2021/04/10 20:00:08;;;;;;;4.65;2.60;;;21.70;26.50;;;;;;8459646;28;20046;-56
2021/04/10 20:04:08;;;;;;;4.28;2.70;;;21.80;26.50;;;;;;8463318;28;20032;-57
2021/04/10 20:08:09;;;;;;;3.35;2.58;;;21.80;26.50;;;;;;8464691;28;20052;-57
2021/04/10 20:12:10;;;;;;;4.33;2.27;;;21.70;26.50;;;;;;8459703;28;20039;-57
2021/04/10 20:16:11;;;;;;;4.00;2.72;;;21.80;26.50;;;;;;8474040;27;20035;-57
2021/04/10 20:20:12;;;;;;;5.72;2.97;;;21.80;26.50;;;;;;8489891;27;20100;-57
2021/04/10 20:24:13;;;;;;;4.50;2.72;;;21.80;26.50;;;;;;8463108;28;20031;-57
2021/04/10 20:28:14;;;;;;;3.92;2.75;;;21.80;26.50;;;;;;8460792;28;20071;-57
2021/04/10 20:32:14;;;;;;;3.47;2.23;;;21.80;26.50;;;;;;8460794;28;20035;-57
2021/04/10 20:36:15;;;;;;;4.00;2.50;;;21.70;26.50;;;;;;8458451;28;20032;-57
2021/04/10 20:40:22;;;;;;;4.32;2.22;;;21.70;26.40;;;;;;8464700;28;20039;-57
2021/04/10 20:44:23;;;;;;;4.45;2.53;;;21.80;26.50;;;;;;8458216;28;20114;-56
2021/04/10 20:48:24;;;;;;;4.38;2.50;;;21.70;26.50;;;;;;8460634;27;20040;-57
2021/04/10 20:52:24;;;;;;;3.72;2.40;;;21.70;26.50;;;;;;8459755;28;20119;-56
2021/04/10 20:56:25;;;;;;;4.40;2.97;;;21.70;26.50;;;;;;8457978;28;20082;-57
2021/04/10 21:00:25;;;;;;;3.57;2.20;;;21.70;26.50;;;;;;8463851;28;20385;-57